createdAt,value
2023-03-18T00:00:34.358Z,3.63
2023-03-18T00:03:40.736Z,6.20
2023-03-18T00:06:48.542Z,7.18
2023-03-18T00:09:54.305Z,5.10
2023-03-18T00:12:59.717Z,5.30
2023-03-18T00:16:05.547Z,5.50
2023-03-18T00:19:10.894Z,8.50
2023-03-18T00:22:19.076Z,6.40
2023-03-18T00:25:24.447Z,7.78
2023-03-18T00:28:29.965Z,5.22
2023-03-18T00:31:35.034Z,6.53
2023-03-18T00:34:40.009Z,9.30
2023-03-18T00:37:49.148Z,7.68
2023-03-18T00:41:01.780Z,7.15
2023-03-18T00:44:07.818Z,8.20
2023-03-18T00:47:13.055Z,11.23
2023-03-18T00:50:18.025Z,6.82
2023-03-18T00:53:26.627Z,7.28
2023-03-18T00:59:36.738Z,11.95
2023-03-18T01:02:43.280Z,5.78
2023-03-18T01:05:48.403Z,5.15
2023-03-18T01:08:56.217Z,7.30
2023-03-18T01:12:02.445Z,8.43
2023-03-18T01:15:08.295Z,9.10
2023-03-18T01:18:14.034Z,13.00
2023-03-18T01:21:19.445Z,8.43
2023-03-18T01:24:32.487Z,9.88
2023-03-18T01:27:37.888Z,9.30
2023-03-18T01:30:43.089Z,7.15
2023-03-18T01:33:49.007Z,10.52
2023-03-18T01:36:54.858Z,9.25
2023-03-18T01:40:05.641Z,7.15
2023-03-18T01:43:16.390Z,11.07
2023-03-18T01:46:36.568Z,12.18
2023-03-18T01:49:44.106Z,6.70
2023-03-18T01:52:50.305Z,5.40
2023-03-18T01:55:58.514Z,9.75
2023-03-18T01:59:04.128Z,6.13
2023-03-18T02:02:10.556Z,12.10
2023-03-18T02:05:19.438Z,4.63
2023-03-18T02:08:25.096Z,6.05
2023-03-18T02:11:33.794Z,8.13
2023-03-18T02:14:39.719Z,8.82
2023-03-18T02:18:06.628Z,7.68
2023-03-18T02:21:19.181Z,8.65
2023-03-18T02:24:42.694Z,8.95
2023-03-18T02:27:57.497Z,6.95
2023-03-18T02:31:09.776Z,6.40
2023-03-18T02:34:16.018Z,5.40
2023-03-18T02:37:21.545Z,9.57
2023-03-18T02:40:29.638Z,5.80
2023-03-18T02:43:37.800Z,10.88
2023-03-18T02:46:51.034Z,9.57
2023-03-18T02:49:56.397Z,8.73
2023-03-18T02:53:02.515Z,6.90
2023-03-18T02:56:08.794Z,7.00
2023-03-18T02:59:16.672Z,5.13
2023-03-18T03:02:22.170Z,8.95
2023-03-18T03:05:28.046Z,7.93
2023-03-18T03:08:34.012Z,9.88
2023-03-18T03:11:39.412Z,8.75
2023-03-18T03:14:53.867Z,11.05
2023-03-18T03:17:59.335Z,9.48
2023-03-18T03:21:04.936Z,6.65
2023-03-18T03:24:10.393Z,7.05
2023-03-18T03:27:18.088Z,11.63
2023-03-18T03:30:26.496Z,4.20
2023-03-18T03:33:32.155Z,4.32
2023-03-18T03:36:37.493Z,3.33
2023-03-18T03:39:42.997Z,9.68
2023-03-18T03:42:48.393Z,6.60
2023-03-18T03:45:56.093Z,4.70
2023-03-18T03:49:01.469Z,7.35
2023-03-18T03:52:07.028Z,8.00
2023-03-18T03:55:15.648Z,6.95
2023-03-18T03:58:21.019Z,5.00
2023-03-18T04:01:29.779Z,6.38
2023-03-18T04:04:36.047Z,8.77
2023-03-18T04:07:41.534Z,4.30
2023-03-18T04:10:47.443Z,5.78
2023-03-18T04:13:52.600Z,7.18
2023-03-18T04:17:02.029Z,5.65
2023-03-18T04:20:09.173Z,9.57
2023-03-18T04:23:14.584Z,5.35
2023-03-18T04:26:20.001Z,10.30
2023-03-18T04:29:26.649Z,8.48
2023-03-18T04:32:34.704Z,15.95
2023-03-18T04:38:45.238Z,5.40
2023-03-18T04:41:51.528Z,7.22
2023-03-18T04:44:56.944Z,6.40
2023-03-18T04:48:04.960Z,14.00
2023-03-18T04:51:15.618Z,6.65
2023-03-18T04:54:22.056Z,14.10
2023-03-18T04:57:30.727Z,5.07
2023-03-18T05:00:36.222Z,6.03
2023-03-18T05:03:56.564Z,7.70
2023-03-18T05:07:11.648Z,5.93
2023-03-18T05:10:19.347Z,9.45
2023-03-18T05:13:25.051Z,6.93
2023-03-18T05:16:30.795Z,4.78
2023-03-18T05:19:40.019Z,7.47
2023-03-18T05:22:52.577Z,12.10
2023-03-18T05:26:14.021Z,10.00
2023-03-18T05:29:24.112Z,10.23
2023-03-18T05:32:46.070Z,10.82
2023-03-18T05:35:55.071Z,8.70
2023-03-18T05:39:05.567Z,7.95
2023-03-18T05:42:11.740Z,7.82
2023-03-18T05:45:17.033Z,12.18
2023-03-18T05:48:29.280Z,14.00
2023-03-18T05:51:41.764Z,5.93
2023-03-18T05:54:51.153Z,9.07
2023-03-18T05:58:03.497Z,8.32
2023-03-18T06:01:11.693Z,10.52
2023-03-18T06:04:17.481Z,12.20
2023-03-18T06:07:25.172Z,8.10
2023-03-18T06:13:36.080Z,14.68
2023-03-18T06:16:41.947Z,11.70
2023-03-18T06:19:48.393Z,11.27
2023-03-18T06:22:56.377Z,10.52
2023-03-18T06:26:04.925Z,17.13
2023-03-18T06:29:14.937Z,10.70
2023-03-18T06:32:20.432Z,10.07
2023-03-18T06:35:26.911Z,13.50
2023-03-18T06:38:35.043Z,13.52
2023-03-18T06:41:41.103Z,7.05
2023-03-18T06:45:05.128Z,10.60
2023-03-18T06:48:29.142Z,4.80
2023-03-18T06:51:36.828Z,7.95
2023-03-18T06:54:45.030Z,6.72
2023-03-18T06:57:50.410Z,10.82
2023-03-18T07:01:00.607Z,12.70
2023-03-18T07:04:12.156Z,8.43
2023-03-18T07:07:17.522Z,9.52
2023-03-18T07:10:27.484Z,7.03
2023-03-18T07:13:39.467Z,8.65
2023-03-18T07:16:52.416Z,7.50
2023-03-18T07:19:58.599Z,7.80
2023-03-18T07:23:04.047Z,9.35
2023-03-18T07:26:12.768Z,4.53
2023-03-18T07:29:17.992Z,8.48
2023-03-18T07:32:23.553Z,4.65
2023-03-18T07:35:29.157Z,5.68
2023-03-18T07:38:34.524Z,4.95
2023-03-18T07:41:42.526Z,5.75
2023-03-18T07:44:47.707Z,6.15
2023-03-18T07:47:53.375Z,8.48
2023-03-18T07:50:59.648Z,8.02
2023-03-18T07:54:05.317Z,6.43
2023-03-18T07:57:13.316Z,6.50
2023-03-18T08:00:19.055Z,8.93
2023-03-18T08:03:24.105Z,6.72
2023-03-18T08:06:29.396Z,5.18
2023-03-18T08:09:34.589Z,7.70
2023-03-18T08:12:52.584Z,8.57
2023-03-18T08:15:59.193Z,6.90
2023-03-18T08:19:04.585Z,4.68
2023-03-18T08:22:10.493Z,5.25
2023-03-18T08:25:16.018Z,11.32
2023-03-18T08:28:23.996Z,4.40
2023-03-18T08:31:29.203Z,8.57
2023-03-18T08:34:34.712Z,5.22
2023-03-18T08:37:40.011Z,9.57
2023-03-18T08:40:46.752Z,6.82
2023-03-18T08:43:55.731Z,9.40
2023-03-18T08:47:01.547Z,4.88
2023-03-18T08:50:07.282Z,10.45
2023-03-18T08:53:13.355Z,8.15
2023-03-18T08:56:18.682Z,4.57
2023-03-18T08:59:26.716Z,4.70
2023-03-18T09:02:32.208Z,4.70
2023-03-18T09:05:37.920Z,6.60
2023-03-18T09:08:44.253Z,11.82
2023-03-18T09:11:50.034Z,6.25
2023-03-18T09:14:58.172Z,5.45
2023-03-18T09:18:12.275Z,7.72
2023-03-18T09:21:18.102Z,6.63
2023-03-18T09:24:23.279Z,8.20
2023-03-18T09:27:28.521Z,4.65
2023-03-18T09:30:36.496Z,4.28
2023-03-18T09:33:42.209Z,10.13
2023-03-18T09:36:51.315Z,5.57
2023-03-18T09:39:56.999Z,5.53
2023-03-18T09:43:06.009Z,9.32
2023-03-18T09:46:18.122Z,4.40
2023-03-18T09:49:39.228Z,7.22
2023-03-18T09:52:47.538Z,3.85
2023-03-18T09:55:56.086Z,2.85
2023-03-18T09:59:04.118Z,5.53
2023-03-18T10:02:20.074Z,5.82
2023-03-18T10:05:27.978Z,10.02
2023-03-18T10:08:46.062Z,6.70
2023-03-18T10:11:52.997Z,6.03
2023-03-18T10:15:04.732Z,8.80
2023-03-18T10:18:17.244Z,8.50
2023-03-18T10:21:27.006Z,4.22
2023-03-18T10:24:35.244Z,5.88
2023-03-18T10:27:45.813Z,5.28
2023-03-18T10:30:57.639Z,6.30
2023-03-18T10:34:08.742Z,5.93
2023-03-18T10:37:20.237Z,4.88
2023-03-18T10:40:27.365Z,8.60
2023-03-18T10:43:34.266Z,5.80
2023-03-18T10:46:39.637Z,3.42
2023-03-18T10:49:50.995Z,8.43
2023-03-18T10:52:57.306Z,4.05
2023-03-18T10:56:05.619Z,4.18
2023-03-18T11:02:20.050Z,4.38
2023-03-18T11:05:29.434Z,5.75
2023-03-18T11:08:39.814Z,7.90
2023-03-18T11:11:45.910Z,5.13
2023-03-18T11:14:51.749Z,6.55
2023-03-18T11:18:01.376Z,5.32
2023-03-18T11:21:13.314Z,4.25
2023-03-18T11:24:36.521Z,3.53
2023-03-18T11:27:43.068Z,4.57
2023-03-18T11:30:50.562Z,16.90
2023-03-18T11:33:59.961Z,4.97
2023-03-18T11:37:08.415Z,4.43
2023-03-18T11:40:21.514Z,3.10
2023-03-18T11:43:26.662Z,4.55
2023-03-18T11:46:33.250Z,4.43
2023-03-18T11:49:38.705Z,5.55
2023-03-18T11:52:50.127Z,3.75
2023-03-18T11:55:58.677Z,2.35
2023-03-18T11:59:11.747Z,4.40
2023-03-18T12:02:27.413Z,4.90
2023-03-18T12:05:40.918Z,4.68
2023-03-18T12:08:54.496Z,3.83
2023-03-18T12:12:03.858Z,4.45
2023-03-18T12:15:15.244Z,3.63
2023-03-18T12:18:26.294Z,4.63
2023-03-18T12:21:39.685Z,3.92
2023-03-18T12:25:00.461Z,3.95
2023-03-18T12:28:12.680Z,4.95
2023-03-18T12:31:31.771Z,4.93
2023-03-18T12:34:47.253Z,6.57
2023-03-18T12:38:00.736Z,5.60
2023-03-18T12:41:13.024Z,6.57
2023-03-18T12:44:25.711Z,4.88
2023-03-18T12:47:37.079Z,3.10
2023-03-18T12:50:44.500Z,3.85
2023-03-18T12:53:51.449Z,3.25
2023-03-18T12:57:01.956Z,3.47
2023-03-18T13:00:10.893Z,4.20
2023-03-18T13:03:24.915Z,3.20
2023-03-18T13:06:32.587Z,2.40
2023-03-18T13:09:40.521Z,2.20
2023-03-18T13:12:50.183Z,2.83
2023-03-18T13:15:56.755Z,5.45
2023-03-18T13:19:04.609Z,5.18
2023-03-18T13:22:15.117Z,4.93
2023-03-18T13:25:24.377Z,4.90
2023-03-18T13:28:42.849Z,2.53
2023-03-18T13:31:53.224Z,1.92
2023-03-18T13:35:04.444Z,4.20
2023-03-18T13:38:30.285Z,4.50
2023-03-18T13:41:53.249Z,6.28
2023-03-18T13:45:08.074Z,3.53
2023-03-18T13:48:16.615Z,3.30
2023-03-18T13:51:24.014Z,3.13
2023-03-18T13:54:35.008Z,2.67
2023-03-18T13:57:50.052Z,2.40
2023-03-18T14:01:10.106Z,5.30
2023-03-18T14:04:34.340Z,4.75
2023-03-18T14:07:49.746Z,4.75
2023-03-18T14:11:19.980Z,4.65
2023-03-18T14:14:39.937Z,8.35
2023-03-18T14:17:47.373Z,5.60
2023-03-18T14:20:58.270Z,2.90
2023-03-18T14:24:14.417Z,7.00
2023-03-18T14:27:22.138Z,4.53
2023-03-18T14:30:42.920Z,4.50
2023-03-18T14:33:54.361Z,5.50
2023-03-18T14:37:26.373Z,4.57
2023-03-18T14:40:38.492Z,5.45
2023-03-18T14:43:46.448Z,5.88
2023-03-18T14:46:53.944Z,4.85
2023-03-18T14:50:04.098Z,3.78
2023-03-18T14:53:14.114Z,8.43
2023-03-18T14:56:26.903Z,4.00
2023-03-18T14:59:32.385Z,4.82
2023-03-18T15:02:41.065Z,3.85
2023-03-18T15:05:47.036Z,4.22
2023-03-18T15:08:54.483Z,5.60
2023-03-18T15:12:02.137Z,4.13
2023-03-18T15:15:08.143Z,4.78
2023-03-18T15:18:21.808Z,3.85
2023-03-18T15:21:28.923Z,8.98
2023-03-18T15:24:34.335Z,5.05
2023-03-18T15:27:43.019Z,5.38
2023-03-18T15:30:54.642Z,10.23
2023-03-18T15:34:10.078Z,7.57
2023-03-18T15:37:29.146Z,7.47
2023-03-18T15:40:36.860Z,5.50
2023-03-18T15:43:46.062Z,7.55
2023-03-18T15:46:51.375Z,6.43
2023-03-18T15:49:58.111Z,4.13
2023-03-18T15:53:08.182Z,10.05
2023-03-18T15:56:17.141Z,9.23
2023-03-18T15:59:27.522Z,7.35
2023-03-18T16:02:33.241Z,4.65
2023-03-18T16:05:39.151Z,6.88
2023-03-18T16:08:45.316Z,5.97
2023-03-18T16:11:52.682Z,9.57
2023-03-18T16:15:00.442Z,9.02
2023-03-18T16:18:05.869Z,9.15
2023-03-18T16:21:12.351Z,7.90
2023-03-18T16:24:17.763Z,12.82
2023-03-18T16:27:30.818Z,9.35
2023-03-18T16:30:40.651Z,8.25
2023-03-18T16:33:46.538Z,8.55
2023-03-18T16:36:53.968Z,10.63
2023-03-18T16:39:59.120Z,10.35
2023-03-18T16:43:04.545Z,9.45
2023-03-18T16:46:14.087Z,10.75
2023-03-18T16:49:21.414Z,6.00
2023-03-18T16:52:26.616Z,11.07
2023-03-18T16:55:32.954Z,13.90
2023-03-18T16:58:39.643Z,10.10
2023-03-18T17:01:47.704Z,6.20
2023-03-18T17:04:53.700Z,13.20
2023-03-18T17:07:59.053Z,6.35
2023-03-18T17:11:05.919Z,8.35
2023-03-18T17:14:12.729Z,12.07
2023-03-18T17:17:24.064Z,7.45
2023-03-18T17:20:30.485Z,11.63
2023-03-18T17:23:35.789Z,8.15
2023-03-18T17:26:40.849Z,11.60
2023-03-18T17:29:46.323Z,12.00
2023-03-18T17:32:54.561Z,19.83
2023-03-18T17:36:00.756Z,10.98
2023-03-18T17:39:06.243Z,10.68
2023-03-18T17:42:19.618Z,10.10
2023-03-18T17:45:27.999Z,15.18
2023-03-18T17:48:36.360Z,14.98
2023-03-18T17:54:46.958Z,14.70
2023-03-18T17:57:52.660Z,13.75
2023-03-18T18:01:06.703Z,20.33
2023-03-18T18:04:17.756Z,16.85
2023-03-18T18:07:24.440Z,13.27
2023-03-18T18:10:30.041Z,16.33
2023-03-18T18:13:35.689Z,13.25
2023-03-18T18:16:40.985Z,13.10
2023-03-18T18:19:48.960Z,14.95
2023-03-18T18:22:55.563Z,11.68
2023-03-18T18:26:01.273Z,16.10
2023-03-18T18:29:13.708Z,17.90
2023-03-18T18:32:19.241Z,13.02
2023-03-18T18:35:27.418Z,11.38
2023-03-18T18:41:37.695Z,20.45
2023-03-18T18:44:43.497Z,18.60
2023-03-18T18:47:48.906Z,15.10
2023-03-18T18:50:56.898Z,14.75
2023-03-18T18:54:03.084Z,13.43
2023-03-18T18:57:08.154Z,14.80
2023-03-18T19:00:18.935Z,15.13
2023-03-18T19:03:25.281Z,12.85
2023-03-18T19:06:34.245Z,17.73
2023-03-18T19:09:39.412Z,12.60
2023-03-18T19:12:44.962Z,10.63
2023-03-18T19:15:50.729Z,15.70
2023-03-18T19:18:56.078Z,20.38
2023-03-18T19:22:04.682Z,18.30
2023-03-18T19:25:12.536Z,19.80
2023-03-18T19:28:47.871Z,17.80
2023-03-18T19:31:57.524Z,16.23
2023-03-18T19:35:02.957Z,16.65
2023-03-18T19:38:12.701Z,17.50
2023-03-18T19:41:18.098Z,16.95
2023-03-18T19:44:24.481Z,11.57
2023-03-18T19:47:31.507Z,16.15
2023-03-18T19:50:36.614Z,19.15
2023-03-18T19:53:44.710Z,17.67
2023-03-18T19:56:49.976Z,19.27
2023-03-18T19:59:55.743Z,19.08
2023-03-18T20:03:01.831Z,20.65
2023-03-18T20:06:08.207Z,19.77
2023-03-18T20:09:15.896Z,16.85
2023-03-18T20:12:26.089Z,15.60
2023-03-18T20:15:32.775Z,17.98
2023-03-18T20:18:38.289Z,13.35
2023-03-18T20:21:43.450Z,19.27
2023-03-18T20:24:51.608Z,15.32
2023-03-18T20:27:58.258Z,11.15
2023-03-18T20:31:04.319Z,11.02
2023-03-18T20:34:09.563Z,14.18
2023-03-18T20:37:21.615Z,10.55
2023-03-18T20:40:30.296Z,15.50
2023-03-18T20:43:35.670Z,12.82
2023-03-18T20:46:40.761Z,11.48
2023-03-18T20:49:47.842Z,12.95
2023-03-18T20:52:53.256Z,9.85
2023-03-18T20:56:01.509Z,11.73
2023-03-18T20:59:07.352Z,10.82
2023-03-18T21:02:23.754Z,9.50
2023-03-18T21:05:29.171Z,8.23
2023-03-18T21:08:34.752Z,10.35
2023-03-18T21:11:42.945Z,7.70
2023-03-18T21:14:47.954Z,9.60
2023-03-18T21:17:53.173Z,6.25
2023-03-18T21:20:58.974Z,11.65
2023-03-18T21:24:03.992Z,7.85
2023-03-18T21:27:15.665Z,8.23
2023-03-18T21:30:21.715Z,8.55
2023-03-18T21:33:28.281Z,7.95
2023-03-18T21:36:33.526Z,7.28
2023-03-18T21:39:39.066Z,4.97
2023-03-18T21:42:47.252Z,9.40
2023-03-18T21:45:52.668Z,10.43
2023-03-18T21:48:57.924Z,4.43
2023-03-18T21:52:03.882Z,8.10
2023-03-18T21:55:09.993Z,7.60
2023-03-18T21:58:19.251Z,7.03
2023-03-18T22:01:26.723Z,7.80
2023-03-18T22:04:32.508Z,7.00
2023-03-18T22:07:37.797Z,7.22
2023-03-18T22:10:42.961Z,11.93
2023-03-18T22:13:51.141Z,6.05
2023-03-18T22:16:56.386Z,10.00
2023-03-18T22:20:02.149Z,6.43
2023-03-18T22:23:18.201Z,9.07
2023-03-18T22:26:23.677Z,9.15
2023-03-18T22:29:31.480Z,9.23
2023-03-18T22:32:40.933Z,9.00
2023-03-18T22:35:46.081Z,9.93
2023-03-18T22:38:51.966Z,10.18
2023-03-18T22:41:57.115Z,8.55
2023-03-18T22:45:05.298Z,11.75
2023-03-18T22:48:11.103Z,11.70
2023-03-18T22:51:22.165Z,8.00
2023-03-18T22:54:27.539Z,8.05
2023-03-18T22:57:33.105Z,8.90
2023-03-18T23:00:41.437Z,7.07
2023-03-18T23:06:52.897Z,8.98
2023-03-18T23:09:58.983Z,18.23
2023-03-18T23:13:04.140Z,8.68
2023-03-18T23:16:16.462Z,10.68
2023-03-18T23:19:21.747Z,7.93
2023-03-18T23:22:28.422Z,6.18
2023-03-18T23:25:34.176Z,8.50
2023-03-18T23:28:44.372Z,7.07
2023-03-18T23:31:52.858Z,4.85
2023-03-18T23:34:57.908Z,7.85
2023-03-18T23:38:03.168Z,8.20
2023-03-18T23:41:08.420Z,5.72
2023-03-18T23:44:13.665Z,6.13
2023-03-18T23:47:22.044Z,5.97
2023-03-18T23:50:27.582Z,4.63
2023-03-18T23:53:32.840Z,4.10
2023-03-18T23:56:38.191Z,7.28
2023-03-18T23:59:43.701Z,3.75
